Aérodrome :
LOGIN :

S'inscrire | Disclaimer

   EN    FR    IT 

 










Légende :    VFR   VFR Marginal   IFR   IFR Intensif   IFR Très Intensif
Visi : 
Plafond : 
>= 8 km
>= 3000ft
5 à 8 km
1000 à 3000 ft
1500m à 5 km
500 à 1000 ft
800 à 1500m
200 à 500 ft
< 800m
< 200 ft
Symboles :   Orages  Brouillard  Fortes neiges  Fortes précipitations  Vent > 20 kt
SIGMETs :   Divers  Orages  Givrage  Turbulence  Onde Orograph.  Cendres Volcan.






- Altitude de l'aérodrome : 433 ft
- Code IATA : CCF


LFMK - Carcassonne

DERNIER METAR :
  • 121300Z AUTO 30014KT 9999 SCT024/// SCT029/// BKN054/// ///TCU 11/09 Q1009 TEMPO 29018G30KT SHRA

METARs EXPIRÉS :
  • 121230Z AUTO 29015KT 9999 -RA FEW024/// BKN032/// BKN039/// ///TCU 11/08 Q1010 TEMPO 29018G30KT SHRA
  • 121200Z AUTO 27019KT 9999 SCT029/// BKN034/// BKN056/// ///TCU 12/06 Q1010 TEMPO 29018G30KT SHRA
  • 121130Z AUTO 28014G26KT 9999 SCT030 BKN036 BKN056 12/07 Q1011 TEMPO SHRA BKN023TCU
  • 121100Z AUTO 27014KT 9999 FEW027 BKN037 BKN045 11/07 Q1011 TEMPO 29018G30KT SHRA BKN023TCU
  • 121030Z AUTO 28013KT 250V310 9999 FEW028 BKN046 BKN058 11/07 Q1012 TEMPO 29018G30KT SHRA BKN023TCU

TAF TAF LFMK
Valide du 12 à 09h jusqu'au 13 à 09h UTC


120800Z 1209/1309 28015KT 9999 SCT025 BKN045
TEMPO 1212/1218 29018G30KT SHRA BKN023TCU
PROB30
TEMPO 1218/1222 -SHRA BKN018TCU
BECMG 1302/1304 26005KT



MET'MAP, la Météo Aéronautique d'un coup d'oeil ! - Copyright ORBIFLY Décembre 2007 - Disclaimer

ORBIFLY MET'MAP TEAM :

Programmation & Développement : Alexandra Zaïnal
Conception & Développement : Baudouin d'Aumeries
Co-Programmation & Développement : Marc-Olivier Méhu
Soutien technique & logistique : Manuel Goepfert

Contact : metmap@orbifly.com




SOURCES & CREDITS :

   NOAA